Time;durP1;ratioP1;P1;durP2;ratioP2;P2;SDS_P1;SDS_P2;PMS_P1;PMS_P2;Temp;Humidity;BMP_temperature;BMP_pressure;BME280_temperature;BME280_humidity;BME280_pressure;Samples;Min_cycle;Max_cycle;Signal;HPM_P1;HPM_P2
2024/02/07 00:02:12;;;;;;;;;;;;;;;-144.99;100.00;67352.69;5056655;28;19999;-81
2024/02/07 00:04:38;;;;;;;;;;;;;;;-144.99;100.00;67352.69;5055692;28;19937;-81
2024/02/07 00:07:03;;;;;;;;;;;;;;;-144.99;100.00;67352.69;5054325;28;20007;-81
2024/02/07 00:09:28;;;;;;;;;;;;;;;-144.99;100.00;67352.69;5055542;28;19963;-81
2024/02/07 00:11:53;;;;;;;;;;;;;;;-144.99;100.00;67352.69;5056273;28;19913;-81
2024/02/07 00:14:18;;;;;;;;;;;;;;;-144.99;100.00;67352.69;5054787;28;19936;-81
2024/02/07 00:16:44;;;;;;;;;;;;;;;-144.99;100.00;67352.69;5047222;28;20299;-82
2024/02/07 00:19:09;;;;;;;;;;;;;;;-144.99;100.00;67352.69;5054678;28;19913;-81
2024/02/07 00:21:34;;;;;;;;;;;;;;;-144.99;100.00;67352.69;5055170;28;19920;-81
2024/02/07 00:23:59;;;;;;;;;;;;;;;-144.99;100.00;67352.69;5054800;28;19927;-81
2024/02/07 00:26:25;;;;;;;;;;;;;;;-144.99;100.00;67352.69;5053968;28;20294;-81
2024/02/07 00:28:50;;;;;;;;;;;;;;;-144.99;100.00;67352.69;5055211;28;19920;-81
2024/02/07 00:31:15;;;;;;;;;;;;;;;-144.99;100.00;67352.69;5054645;28;19967;-81
2024/02/07 00:33:40;;;;;;;;;;;;;;;-144.99;100.00;67352.69;5054931;28;19931;-81
2024/02/07 00:36:06;;;;;;;;;;;;;;;-144.99;100.00;67352.69;5054397;28;19999;-81
2024/02/07 00:38:31;;;;;;;;;;;;;;;-144.99;100.00;67352.69;5052969;28;20042;-81
2024/02/07 00:40:56;;;;;;;;;;;;;;;-144.99;100.00;67352.69;5052299;28;20333;-81
2024/02/07 00:43:21;;;;;;;;;;;;;;;-144.99;100.00;67352.69;5052518;28;19917;-81
2024/02/07 00:45:47;;;;;;;;;;;;;;;-144.99;100.00;67352.69;5051712;28;19913;-81
2024/02/07 00:48:12;;;;;;;;;;;;;;;-144.99;100.00;67352.69;5054412;28;19996;-81
2024/02/07 00:50:38;;;;;;;;;;;;;;;-144.99;100.00;67352.69;5053820;28;19913;-81
2024/02/07 00:53:03;;;;;;;;;;;;;;;-144.99;100.00;67352.69;5052439;28;20535;-81
2024/02/07 00:55:28;;;;;;;;;;;;;;;-144.99;100.00;67352.69;5052274;28;19913;-81
2024/02/07 00:57:55;;;;;;;;;;;;;;;-144.99;100.00;67352.69;5053187;28;19927;-81
2024/02/07 01:00:23;;;;;;;;;;;;;;;-144.99;100.00;67352.69;5051687;28;19912;-81
2024/02/07 01:02:48;;;;;;;;;;;;;;;-144.99;100.00;67352.69;5051978;28;19912;-82
2024/02/07 01:05:14;;;;;;;;;;;;;;;-144.99;100.00;67352.69;5052280;28;19920;-82
2024/02/07 01:07:39;;;;;;;;;;;;;;;-144.99;100.00;67352.69;5051922;28;19963;-82
2024/02/07 01:10:04;;;;;;;;;;;;;;;-144.99;100.00;67352.69;5051848;28;19917;-82
2024/02/07 01:12:30;;;;;;;;;;;;;;;-144.99;100.00;67352.69;5053148;28;19913;-82
2024/02/07 01:14:55;;;;;;;;;;;;;;;-144.99;100.00;67352.69;5051626;28;19928;-82
2024/02/07 01:17:20;;;;;;;;;;;;;;;-144.99;100.00;67352.69;5052171;28;20500;-82
2024/02/07 01:19:47;;;;;;;;;;;;;;;-144.99;100.00;67352.69;5053189;28;19934;-82
2024/02/07 01:22:12;;;;;;;;;;;;;;;-144.99;100.00;67352.69;5051981;28;19920;-82
2024/02/07 01:24:38;;;;;;;;;;;;;;;-144.99;100.00;67352.69;5052251;28;20368;-82
2024/02/07 01:27:04;;;;;;;;;;;;;;;-144.99;100.00;67352.69;5051730;28;20359;-82
2024/02/07 01:29:29;;;;;;;;;;;;;;;-144.99;100.00;67352.69;5052150;28;19917;-82
2024/02/07 01:31:55;;;;;;;;;;;;;;;-144.99;100.00;67352.69;5053006;28;19946;-82
2024/02/07 01:34:20;;;;;;;;;;;;;;;-144.99;100.00;67352.69;5051622;28;19971;-82
2024/02/07 01:36:45;;;;;;;;;;;;;;;-144.99;100.00;67352.69;5050873;28;20063;-82
2024/02/07 01:39:11;;;;;;;;;;;;;;;-144.99;100.00;67352.69;5053296;28;20396;-82
2024/02/07 01:44:20;;;;;;;;;;;;;;;-144.99;100.00;67352.69;5045007;28;19924;-82
2024/02/07 01:46:45;;;;;;;;;;;;;;;-144.99;100.00;67352.69;5052088;28;19912;-82
2024/02/07 01:49:11;;;;;;;;;;;;;;;-144.99;100.00;67352.69;5051446;28;19917;-82
2024/02/07 01:51:36;;;;;;;;;;;;;;;-144.99;100.00;67352.69;5052689;28;20325;-82
2024/02/07 01:54:02;;;;;;;;;;;;;;;-144.99;100.00;67352.69;5051145;28;19917;-82
2024/02/07 01:56:27;;;;;;;;;;;;;;;-144.99;100.00;67352.69;5050561;28;22328;-82
2024/02/07 01:58:53;;;;;;;;;;;;;;;-144.99;100.00;67352.69;5052440;28;19936;-82
2024/02/07 02:01:19;;;;;;;;;;;;;;;-144.99;100.00;67352.69;5051243;28;19912;-82
2024/02/07 02:03:44;;;;;;;;;;;;;;;-144.99;100.00;67352.69;5051189;28;20379;-82
2024/02/07 02:06:10;;;;;;;;;;;;;;;-144.99;100.00;67352.69;5051501;28;19921;-82
2024/02/07 02:08:35;;;;;;;;;;;;;;;-144.99;100.00;67352.69;5051054;28;19919;-82
2024/02/07 02:11:03;;;;;;;;;;;;;;;-144.99;100.00;67352.69;5051003;28;19999;-81
2024/02/07 02:13:29;;;;;;;;;;;;;;;-144.99;100.00;67352.69;5051040;28;19913;-81
2024/02/07 02:15:54;;;;;;;;;;;;;;;-144.99;100.00;67352.69;5051935;28;19913;-82
2024/02/07 02:18:19;;;;;;;;;;;;;;;-144.99;100.00;67352.69;5055138;28;20291;-82
2024/02/07 02:20:44;;;;;;;;;;;;;;;-144.99;100.00;67352.69;5054771;28;19916;-82
2024/02/07 02:23:20;;;;;;;;;;;;;;;-144.99;100.00;67352.69;5055556;28;20333;-82
2024/02/07 02:25:55;;;;;;;;;;;;;;;-144.99;100.00;67352.69;5053720;28;19913;-81
2024/02/07 02:28:52;;;;;;;;;;;;;;;-144.99;100.00;67352.69;5055201;28;19916;-81
2024/02/07 02:31:18;;;;;;;;;;;;;;;-144.99;100.00;67352.69;5054425;28;19912;-82
2024/02/07 02:33:44;;;;;;;;;;;;;;;-144.99;100.00;67352.69;5055562;28;19966;-82
2024/02/07 02:36:10;;;;;;;;;;;;;;;-144.99;100.00;67352.69;5054555;28;20046;-81
2024/02/07 02:38:35;;;;;;;;;;;;;;;-144.99;100.00;67352.69;5055558;28;20007;-82
2024/02/07 02:41:03;;;;;;;;;;;;;;;-144.99;100.00;67352.69;5055431;28;19924;-81
2024/02/07 02:43:28;;;;;;;;;;;;;;;-144.99;100.00;67352.69;5054046;28;20287;-82
2024/02/07 02:45:54;;;;;;;;;;;;;;;-144.99;100.00;67352.69;5054537;28;19913;-82
2024/02/07 02:48:19;;;;;;;;;;;;;;;-144.99;100.00;67352.69;5053361;28;19913;-82
2024/02/07 02:50:45;;;;;;;;;;;;;;;-144.99;100.00;67352.69;5054992;28;19959;-81
2024/02/07 02:53:11;;;;;;;;;;;;;;;-144.99;100.00;67352.69;5053730;28;19912;-82
2024/02/07 02:55:37;;;;;;;;;;;;;;;-144.99;100.00;67352.69;5054428;28;20379;-81
2024/02/07 02:58:03;;;;;;;;;;;;;;;-144.99;100.00;67352.69;5055115;28;19920;-81
2024/02/07 03:00:28;;;;;;;;;;;;;;;-144.99;100.00;67352.69;5053845;28;19917;-82
2024/02/07 03:02:56;;;;;;;;;;;;;;;-144.99;100.00;67352.69;5054826;28;19912;-82
2024/02/07 03:05:38;;;;;;;;;;;;;;;-144.99;100.00;67352.69;5052882;28;19916;-82
2024/02/07 03:10:35;;;;;;;;;;;;;;;-144.99;100.00;67352.69;5055155;28;19966;-81
2024/02/07 03:13:03;;;;;;;;;;;;;;;-144.99;100.00;67352.69;5053297;28;19916;-81
2024/02/07 03:15:30;;;;;;;;;;;;;;;-144.99;100.00;67352.69;5052691;28;19917;-82
2024/02/07 03:17:56;;;;;;;;;;;;;;;-144.99;100.00;67352.69;5053673;28;20007;-81
2024/02/07 03:20:22;;;;;;;;;;;;;;;-144.99;100.00;67352.69;5054704;28;19917;-82
2024/02/07 03:22:48;;;;;;;;;;;;;;;-144.99;100.00;67352.69;5053267;28;20004;-81
2024/02/07 03:25:16;;;;;;;;;;;;;;;-144.99;100.00;67352.69;5052575;28;19928;-81
2024/02/07 03:27:45;;;;;;;;;;;;;;;-144.99;100.00;67352.69;5052952;28;19968;-81
2024/02/07 03:30:12;;;;;;;;;;;;;;;-144.99;100.00;67352.69;5053176;28;19970;-82
2024/02/07 03:32:38;;;;;;;;;;;;;;;-144.99;100.00;67352.69;5053036;28;19912;-81
2024/02/07 03:35:04;;;;;;;;;;;;;;;-144.99;100.00;67352.69;5053660;28;20094;-81
2024/02/07 03:37:29;;;;;;;;;;;;;;;-144.99;100.00;67352.69;5053036;28;19916;-81
2024/02/07 03:39:54;;;;;;;;;;;;;;;-144.99;100.00;67352.69;5054407;28;19912;-81
2024/02/07 03:42:21;;;;;;;;;;;;;;;-144.99;100.00;67352.69;5054179;28;19955;-82
2024/02/07 03:44:54;;;;;;;;;;;;;;;-144.99;100.00;67352.69;5052307;28;19936;-81
2024/02/07 03:47:19;;;;;;;;;;;;;;;-144.99;100.00;67352.69;5054513;28;19913;-81
2024/02/07 03:49:44;;;;;;;;;;;;;;;-144.99;100.00;67352.69;5054110;28;19955;-82
2024/02/07 03:52:10;;;;;;;;;;;;;;;-144.99;100.00;67352.69;5054041;28;20236;-81
2024/02/07 03:54:48;;;;;;;;;;;;;;;-144.99;100.00;67352.69;5053353;28;19913;-81
2024/02/07 03:57:13;;;;;;;;;;;;;;;-144.99;100.00;67352.69;5053264;28;19952;-82
2024/02/07 03:59:38;;;;;;;;;;;;;;;-144.99;100.00;67352.69;5054612;28;19955;-81
2024/02/07 04:02:04;;;;;;;;;;;;;;;-144.99;100.00;67352.69;5054197;28;20075;-81
2024/02/07 04:04:29;;;;;;;;;;;;;;;-144.99;100.00;67352.69;5053095;28;19919;-82
2024/02/07 04:06:55;;;;;;;;;;;;;;;-144.99;100.00;67352.69;5051917;28;19913;-81
2024/02/07 04:09:20;;;;;;;;;;;;;;;-144.99;100.00;67352.69;5052905;28;19920;-81
2024/02/07 05:16:42;;;;;;;;;;;;;;;-144.99;100.00;67352.69;5052097;28;19978;-81
2024/02/07 05:19:07;;;;;;;;;;;;;;;-144.99;100.00;67352.69;5052873;28;19917;-81
2024/02/07 05:21:34;;;;;;;;;;;;;;;-144.99;100.00;67352.69;5052339;28;20009;-81
2024/02/07 05:24:00;;;;;;;;;;;;;;;-144.99;100.00;67352.69;5051231;28;19919;-82
2024/02/07 05:26:25;;;;;;;;;;;;;;;-144.99;100.00;67352.69;5050158;28;19913;-82
2024/02/07 05:28:50;;;;;;;;;;;;;;;-144.99;100.00;67352.69;5051332;28;19917;-82
2024/02/07 05:31:15;;;;;;;;;;;;;;;-144.99;100.00;67352.69;5051784;28;19920;-82
2024/02/07 05:33:40;;;;;;;;;;;;;;;-144.99;100.00;67352.69;5050875;28;20011;-81
2024/02/07 05:36:06;;;;;;;;;;;;;;;-144.99;100.00;67352.69;5050036;28;20497;-81
2024/02/07 05:38:31;;;;;;;;;;;;;;;-144.99;100.00;67352.69;5049240;28;19928;-81
2024/02/07 05:40:56;;;;;;;;;;;;;;;-144.99;100.00;67352.69;5050376;28;19913;-82
2024/02/07 05:43:21;;;;;;;;;;;;;;;-144.99;100.00;67352.69;5051995;28;19982;-81
2024/02/07 05:45:46;;;;;;;;;;;;;;;-144.99;100.00;67352.69;5051428;28;20437;-81
2024/02/07 05:48:12;;;;;;;;;;;;;;;-144.99;100.00;67352.69;5050884;28;20371;-81
2024/02/07 05:50:37;;;;;;;;;;;;;;;-144.99;100.00;67352.69;5050685;28;19913;-81
2024/02/07 05:53:02;;;;;;;;;;;;;;;-144.99;100.00;67352.69;5051748;28;19920;-81
2024/02/07 05:55:27;;;;;;;;;;;;;;;-144.99;100.00;67352.69;5051658;28;19959;-81
2024/02/07 05:57:53;;;;;;;;;;;;;;;-144.99;100.00;67352.69;5052579;28;19976;-82
2024/02/07 06:00:18;;;;;;;;;;;;;;;-144.99;100.00;67352.69;5051840;28;19917;-80
2024/02/07 06:02:43;;;;;;;;;;;;;;;-144.99;100.00;67352.69;5052071;28;19999;-81
2024/02/07 06:05:10;;;;;;;;;;;;;;;-144.99;100.00;67352.69;5051256;28;19966;-81
2024/02/07 06:07:35;;;;;;;;;;;;;;;-144.99;100.00;67352.69;5051259;28;19912;-81
2024/02/07 06:10:01;;;;;;;;;;;;;;;-144.99;100.00;67352.69;5050968;28;19994;-81
2024/02/07 06:12:27;;;;;;;;;;;;;;;-144.99;100.00;67352.69;5050623;28;19921;-81
2024/02/07 06:14:52;;;;;;;;;;;;;;;-144.99;100.00;67352.69;5051554;28;20334;-80
2024/02/07 06:17:18;;;;;;;;;;;;;;;-144.99;100.00;67352.69;5052073;28;19970;-82
2024/02/07 06:19:43;;;;;;;;;;;;;;;-144.99;100.00;67352.69;5051409;28;19963;-81
2024/02/07 06:22:08;;;;;;;;;;;;;;;-144.99;100.00;67352.69;5052027;28;19913;-80
2024/02/07 06:24:33;;;;;;;;;;;;;;;-144.99;100.00;67352.69;5050741;28;19920;-80
2024/02/07 06:26:58;;;;;;;;;;;;;;;-144.99;100.00;67352.69;5049805;28;19917;-80
2024/02/07 06:29:24;;;;;;;;;;;;;;;-144.99;100.00;67352.69;5051704;28;19917;-81
2024/02/07 06:31:49;;;;;;;;;;;;;;;-144.99;100.00;67352.69;5041630;28;19976;-80
2024/02/07 06:34:14;;;;;;;;;;;;;;;-144.99;100.00;67352.69;5052663;28;20339;-80
2024/02/07 06:36:39;;;;;;;;;;;;;;;-144.99;100.00;67352.69;5054152;28;19946;-80
2024/02/07 06:39:05;;;;;;;;;;;;;;;-144.99;100.00;67352.69;5052746;28;20038;-79
2024/02/07 06:41:30;;;;;;;;;;;;;;;-144.99;100.00;67352.69;5050130;28;20046;-79
2024/02/07 06:43:55;;;;;;;;;;;;;;;-144.99;100.00;67352.69;5047314;28;19956;-79
2024/02/07 06:46:20;;;;;;;;;;;;;;;-144.99;100.00;67352.69;5050761;28;20365;-79
2024/02/07 06:48:45;;;;;;;;;;;;;;;-144.99;100.00;67352.69;5051860;28;19913;-79
2024/02/07 06:51:11;;;;;;;;;;;;;;;-144.99;100.00;67352.69;5050334;28;19978;-79
2024/02/07 06:53:36;;;;;;;;;;;;;;;-144.99;100.00;67352.69;5050547;28;19920;-79
2024/02/07 06:56:01;;;;;;;;;;;;;;;-144.99;100.00;67352.69;5042723;28;19942;-79
2024/02/07 06:58:29;;;;;;;;;;;;;;;-144.99;100.00;67352.69;5049931;28;19921;-79
2024/02/07 07:00:56;;;;;;;;;;;;;;;-144.99;100.00;67352.69;5050555;28;19912;-79
2024/02/07 07:03:21;;;;;;;;;;;;;;;-144.99;100.00;67352.69;5051331;28;19921;-79
2024/02/07 07:05:46;;;;;;;;;;;;;;;-144.99;100.00;67352.69;5055687;28;19920;-79
2024/02/07 07:08:12;;;;;;;;;;;;;;;-144.99;100.00;67352.69;5055407;28;19920;-79
2024/02/07 07:10:37;;;;;;;;;;;;;;;-144.99;100.00;67352.69;5053748;28;20280;-79
2024/02/07 07:13:02;;;;;;;;;;;;;;;-144.99;100.00;67352.69;5055352;28;20003;-79
2024/02/07 07:15:27;;;;;;;;;;;;;;;-144.99;100.00;67352.69;5054620;28;19972;-80
2024/02/07 07:17:53;;;;;;;;;;;;;;;-144.99;100.00;67352.69;5053353;28;19920;-80
2024/02/07 07:20:18;;;;;;;;;;;;;;;-144.99;100.00;67352.69;5053859;28;20023;-80
2024/02/07 07:22:43;;;;;;;;;;;;;;;-144.99;100.00;67352.69;5054379;28;19913;-80
2024/02/07 07:25:08;;;;;;;;;;;;;;;-144.99;100.00;67352.69;5053942;28;19999;-79
2024/02/07 07:27:33;;;;;;;;;;;;;;;-144.99;100.00;67352.69;5054887;28;20299;-79
2024/02/07 07:29:59;;;;;;;;;;;;;;;-144.99;100.00;67352.69;5054501;28;19932;-81
2024/02/07 07:32:24;;;;;;;;;;;;;;;-144.99;100.00;67352.69;5054167;28;19920;-81
2024/02/07 07:34:49;;;;;;;;;;;;;;;-144.99;100.00;67352.69;5053623;28;20359;-81
2024/02/07 07:37:14;;;;;;;;;;;;;;;-144.99;100.00;67352.69;5054247;28;20019;-82
2024/02/07 07:39:41;;;;;;;;;;;;;;;-144.99;100.00;67352.69;5054313;28;19913;-81
2024/02/07 07:42:06;;;;;;;;;;;;;;;-144.99;100.00;67352.69;5055091;28;19955;-81
2024/02/07 07:44:31;;;;;;;;;;;;;;;-144.99;100.00;67352.69;5053955;28;19913;-79
2024/02/07 07:46:56;;;;;;;;;;;;;;;-144.99;100.00;67352.69;5053207;28;19948;-79
2024/02/07 07:49:22;;;;;;;;;;;;;;;-144.99;100.00;67352.69;5055782;28;20331;-81
2024/02/07 07:51:47;;;;;;;;;;;;;;;-144.99;100.00;67352.69;5055464;28;19948;-79
2024/02/07 07:54:12;;;;;;;;;;;;;;;-144.99;100.00;67352.69;5055597;28;19920;-79
2024/02/07 07:56:37;;;;;;;;;;;;;;;-144.99;100.00;67352.69;5054854;28;20307;-79
2024/02/07 07:59:03;;;;;;;;;;;;;;;-144.99;100.00;67352.69;5054298;28;20371;-79
2024/02/07 08:01:28;;;;;;;;;;;;;;;-144.99;100.00;67352.69;5055470;28;19923;-80
2024/02/07 08:03:53;;;;;;;;;;;;;;;-144.99;100.00;67352.69;5055949;28;19913;-79
2024/02/07 08:06:19;;;;;;;;;;;;;;;-144.99;100.00;67352.69;5054514;28;20011;-80
2024/02/07 08:08:45;;;;;;;;;;;;;;;-144.99;100.00;67352.69;5053561;28;19912;-79
2024/02/07 08:11:10;;;;;;;;;;;;;;;-144.99;100.00;67352.69;5054110;28;19923;-79
2024/02/07 08:13:35;;;;;;;;;;;;;;;-144.99;100.00;67352.69;5055527;28;19919;-80
2024/02/07 08:16:00;;;;;;;;;;;;;;;-144.99;100.00;67352.69;5054901;28;19916;-79
2024/02/07 08:18:34;;;;;;;;;;;;;;;-144.99;100.00;67352.69;5055408;28;20008;-80
2024/02/07 08:21:00;;;;;;;;;;;;;;;-144.99;100.00;67352.69;5054083;28;19963;-79
2024/02/07 08:23:25;;;;;;;;;;;;;;;-144.99;100.00;67352.69;5054115;28;19913;-78
2024/02/07 08:25:51;;;;;;;;;;;;;;;-144.99;100.00;67352.69;5053525;28;20419;-79
2024/02/07 08:28:16;;;;;;;;;;;;;;;-144.99;100.00;67352.69;5054113;28;19920;-80
2024/02/07 08:30:41;;;;;;;;;;;;;;;-144.99;100.00;67352.69;5053764;28;20390;-79
2024/02/07 08:33:06;;;;;;;;;;;;;;;-144.99;100.00;67352.69;5054159;28;20058;-80
2024/02/07 08:35:32;;;;;;;;;;;;;;;-144.99;100.00;67352.69;5053525;28;20000;-79
2024/02/07 08:38:00;;;;;;;;;;;;;;;-144.99;100.00;67352.69;5055087;28;20294;-80
2024/02/07 08:40:26;;;;;;;;;;;;;;;-144.99;100.00;67352.69;5055169;28;19923;-80
2024/02/07 08:42:51;;;;;;;;;;;;;;;-144.99;100.00;67352.69;5055252;28;20007;-80
2024/02/07 08:45:17;;;;;;;;;;;;;;;-144.99;100.00;67352.69;5055083;28;20371;-80
2024/02/07 08:47:42;;;;;;;;;;;;;;;-144.99;100.00;67352.69;5053747;28;19920;-80
2024/02/07 08:50:08;;;;;;;;;;;;;;;-144.99;100.00;67352.69;5054165;28;19912;-79
2024/02/07 08:52:33;;;;;;;;;;;;;;;-144.99;100.00;67352.69;5055167;28;19955;-79
2024/02/07 08:54:58;;;;;;;;;;;;;;;-144.99;100.00;67352.69;5054567;28;20026;-80
2024/02/07 08:57:27;;;;;;;;;;;;;;;-144.99;100.00;67352.69;5052796;28;19948;-80
2024/02/07 08:59:52;;;;;;;;;;;;;;;-144.99;100.00;67352.69;5053318;28;19990;-80
2024/02/07 09:02:18;;;;;;;;;;;;;;;-144.99;100.00;67352.69;5054257;28;19913;-81
2024/02/07 09:04:44;;;;;;;;;;;;;;;-144.99;100.00;67352.69;5049363;28;19918;-80
2024/02/07 09:07:09;;;;;;;;;;;;;;;-144.99;100.00;67352.69;5051107;28;19936;-80
2024/02/07 09:09:34;;;;;;;;;;;;;;;-144.99;100.00;67352.69;5052695;28;19917;-80
2024/02/07 09:11:59;;;;;;;;;;;;;;;-144.99;100.00;67352.69;5054356;28;19920;-80
2024/02/07 09:14:24;;;;;;;;;;;;;;;-144.99;100.00;67352.69;5049437;28;19916;-79
2024/02/07 09:16:49;;;;;;;;;;;;;;;-144.99;100.00;67352.69;5051824;28;19921;-80
2024/02/07 09:19:15;;;;;;;;;;;;;;;-144.99;100.00;67352.69;5055625;28;19959;-80
2024/02/07 09:21:40;;;;;;;;;;;;;;;-144.99;100.00;67352.69;5053553;28;19969;-80
2024/02/07 09:24:06;;;;;;;;;;;;;;;-144.99;100.00;67352.69;5054571;28;20007;-80
2024/02/07 09:26:32;;;;;;;;;;;;;;;-144.99;100.00;67352.69;5051917;28;19917;-81
2024/02/07 09:28:57;;;;;;;;;;;;;;;-144.99;100.00;67352.69;5053381;28;20349;-81
2024/02/07 09:31:22;;;;;;;;;;;;;;;-144.99;100.00;67352.69;5053554;28;19912;-80
2024/02/07 09:33:47;;;;;;;;;;;;;;;-144.99;100.00;67352.69;5051652;28;19955;-79
2024/02/07 09:36:13;;;;;;;;;;;;;;;-144.99;100.00;67352.69;5052330;28;19913;-79
2024/02/07 09:38:38;;;;;;;;;;;;;;;-144.99;100.00;67352.69;5051900;28;19917;-79
2024/02/07 09:41:04;;;;;;;;;;;;;;;-144.99;100.00;67352.69;5053163;28;20437;-80
2024/02/07 09:43:30;;;;;;;;;;;;;;;-144.99;100.00;67352.69;5052805;28;19913;-79
2024/02/07 09:45:57;;;;;;;;;;;;;;;-144.99;100.00;67352.69;5049965;28;19928;-80
2024/02/07 09:48:24;;;;;;;;;;;;;;;-144.99;100.00;67352.69;5052024;28;19913;-79
2024/02/07 09:50:50;;;;;;;;;;;;;;;-144.99;100.00;67352.69;5054123;28;19917;-80
2024/02/07 09:53:17;;;;;;;;;;;;;;;-144.99;100.00;67352.69;5052808;28;19912;-80
2024/02/07 09:55:43;;;;;;;;;;;;;;;-144.99;100.00;67352.69;5052262;28;20039;-79
2024/02/07 09:58:09;;;;;;;;;;;;;;;-144.99;100.00;67352.69;5052727;28;19916;-79
2024/02/07 10:00:35;;;;;;;;;;;;;;;-144.99;100.00;67352.69;5052715;28;20410;-80
2024/02/07 10:03:01;;;;;;;;;;;;;;;-144.99;100.00;67352.69;5051478;28;20331;-80
2024/02/07 10:05:29;;;;;;;;;;;;;;;-144.99;100.00;67352.69;5050993;28;20299;-81
2024/02/07 10:07:54;;;;;;;;;;;;;;;-144.99;100.00;67352.69;5051298;28;19913;-80
2024/02/07 10:10:19;;;;;;;;;;;;;;;-144.99;100.00;67352.69;5052974;28;19920;-80
2024/02/07 10:12:45;;;;;;;;;;;;;;;-144.99;100.00;67352.69;5052829;28;19917;-79
2024/02/07 10:15:11;;;;;;;;;;;;;;;-144.99;100.00;67352.69;5051234;28;19916;-80
2024/02/07 10:17:36;;;;;;;;;;;;;;;-144.99;100.00;67352.69;5051718;28;19917;-80
2024/02/07 10:20:11;;;;;;;;;;;;;;;-144.99;100.00;67352.69;5052695;28;19963;-80
2024/02/07 10:22:39;;;;;;;;;;;;;;;-144.99;100.00;67352.69;5044545;28;19913;-80
2024/02/07 10:25:14;;;;;;;;;;;;;;;-144.99;100.00;67352.69;5049621;28;19913;-80
2024/02/07 10:27:40;;;;;;;;;;;;;;;-144.99;100.00;67352.69;5045817;28;19912;-80
2024/02/07 10:30:08;;;;;;;;;;;;;;;-144.99;100.00;67352.69;5051150;28;19924;-80
2024/02/07 10:32:33;;;;;;;;;;;;;;;-144.99;100.00;67352.69;5052558;28;19916;-81
2024/02/07 10:34:58;;;;;;;;;;;;;;;-144.99;100.00;67352.69;5052564;28;20315;-80
2024/02/07 10:37:23;;;;;;;;;;;;;;;-144.99;100.00;67352.69;5052799;28;19964;-80
2024/02/07 10:39:49;;;;;;;;;;;;;;;-144.99;100.00;67352.69;5054528;28;19920;-80
2024/02/07 10:42:15;;;;;;;;;;;;;;;-144.99;100.00;67352.69;5055651;28;20012;-80
2024/02/07 10:44:40;;;;;;;;;;;;;;;-144.99;100.00;67352.69;5056979;28;19950;-80
2024/02/07 10:47:07;;;;;;;;;;;;;;;-144.99;100.00;67352.69;5061132;28;19913;-82
2024/02/07 10:49:32;;;;;;;;;;;;;;;-144.99;100.00;67352.69;5061081;28;19916;-80
2024/02/07 10:51:58;;;;;;;;;;;;;;;-144.99;100.00;67352.69;5061421;28;19913;-82
2024/02/07 10:54:25;;;;;;;;;;;;;;;-144.99;100.00;67352.69;5059520;28;20011;-81
2024/02/07 10:56:55;;;;;;;;;;;;;;;-144.99;100.00;67352.69;5059823;28;19916;-81
2024/02/07 10:59:20;;;;;;;;;;;;;;;-144.99;100.00;67352.69;5061027;28;19939;-81
2024/02/07 11:01:46;;;;;;;;;;;;;;;-144.99;100.00;67352.69;5058496;28;19912;-81
2024/02/07 11:04:11;;;;;;;;;;;;;;;-144.99;100.00;67352.69;5061013;28;19984;-79
2024/02/07 11:06:37;;;;;;;;;;;;;;;-144.99;100.00;67352.69;5058223;28;20318;-81
2024/02/07 11:09:03;;;;;;;;;;;;;;;-144.99;100.00;67352.69;5060196;28;19921;-82
2024/02/07 11:11:29;;;;;;;;;;;;;;;-144.99;100.00;67352.69;5059809;28;19921;-81
2024/02/07 11:13:56;;;;;;;;;;;;;;;-144.99;100.00;67352.69;5059820;28;19967;-80
2024/02/07 11:16:22;;;;;;;;;;;;;;;-144.99;100.00;67352.69;5057607;28;20015;-82
2024/02/07 11:18:47;;;;;;;;;;;;;;;-144.99;100.00;67352.69;5059798;28;19948;-82
2024/02/07 11:21:16;;;;;;;;;;;;;;;-144.99;100.00;67352.69;5058541;28;20318;-81
2024/02/07 11:23:41;;;;;;;;;;;;;;;-144.99;100.00;67352.69;5057941;28;20280;-81
2024/02/07 11:26:07;;;;;;;;;;;;;;;-144.99;100.00;67352.69;5057160;28;19920;-80
2024/02/07 11:28:33;;;;;;;;;;;;;;;-144.99;100.00;67352.69;5057844;28;19917;-81
2024/02/07 11:31:02;;;;;;;;;;;;;;;-144.99;100.00;67352.69;5057484;28;20398;-81
2024/02/07 11:33:28;;;;;;;;;;;;;;;-144.99;100.00;67352.69;5057539;28;20416;-82
2024/02/07 11:36:04;;;;;;;;;;;;;;;-144.99;100.00;67352.69;5057836;28;19913;-81
2024/02/07 11:38:34;;;;;;;;;;;;;;;-144.99;100.00;67352.69;5057323;28;20284;-82
2024/02/07 11:41:03;;;;;;;;;;;;;;;-144.99;100.00;67352.69;5059016;28;20007;-81
2024/02/07 11:43:28;;;;;;;;;;;;;;;-144.99;100.00;67352.69;5058491;28;20276;-81
2024/02/07 11:46:01;;;;;;;;;;;;;;;-144.99;100.00;67352.69;5056006;28;19935;-80
2024/02/07 11:48:26;;;;;;;;;;;;;;;-144.99;100.00;67352.69;5057548;28;20174;-81
2024/02/07 11:50:52;;;;;;;;;;;;;;;-144.99;100.00;67352.69;5055667;28;20389;-80
2024/02/07 11:53:22;;;;;;;;;;;;;;;-144.99;100.00;67352.69;5056451;28;19919;-81
2024/02/07 11:55:47;;;;;;;;;;;;;;;-144.99;100.00;67352.69;5050484;28;19917;-81
2024/02/07 11:58:15;;;;;;;;;;;;;;;-144.99;100.00;67352.69;5051559;28;19970;-81
2024/02/07 12:00:41;;;;;;;;;;;;;;;-144.99;100.00;67352.69;5048271;28;19944;-80
2024/02/07 12:03:11;;;;;;;;;;;;;;;-144.99;100.00;67352.69;5053573;28;19913;-81
2024/02/07 12:05:36;;;;;;;;;;;;;;;-144.99;100.00;67352.69;5046527;28;19913;-81
2024/02/07 12:08:02;;;;;;;;;;;;;;;-144.99;100.00;67352.69;5044645;28;19923;-81
2024/02/07 12:10:27;;;;;;;;;;;;;;;-144.99;100.00;67352.69;5047885;28;20238;-80
2024/02/07 12:12:54;;;;;;;;;;;;;;;-144.99;100.00;67352.69;5053136;28;19913;-80
2024/02/07 12:15:19;;;;;;;;;;;;;;;-144.99;100.00;67352.69;5055439;28;19917;-80
2024/02/07 12:17:45;;;;;;;;;;;;;;;-144.99;100.00;67352.69;5054032;28;19917;-81
2024/02/07 12:20:12;;;;;;;;;;;;;;;-144.99;100.00;67352.69;5052477;28;19912;-80
2024/02/07 12:22:40;;;;;;;;;;;;;;;-144.99;100.00;67352.69;5050257;28;20338;-81
2024/02/07 12:25:05;;;;;;;;;;;;;;;-144.99;100.00;67352.69;5053040;28;19917;-80
2024/02/07 12:27:31;;;;;;;;;;;;;;;-144.99;100.00;67352.69;5052559;28;20019;-80
2024/02/07 12:29:57;;;;;;;;;;;;;;;-144.99;100.00;67352.69;5052658;28;19923;-80
2024/02/07 12:32:22;;;;;;;;;;;;;;;-144.99;100.00;67352.69;5052366;28;19916;-80
2024/02/07 12:34:48;;;;;;;;;;;;;;;-144.99;100.00;67352.69;5053288;28;20366;-80
2024/02/07 12:37:14;;;;;;;;;;;;;;;-144.99;100.00;67352.69;5052485;28;19923;-80
2024/02/07 12:39:39;;;;;;;;;;;;;;;-144.99;100.00;67352.69;5052595;28;19917;-81
2024/02/07 12:42:05;;;;;;;;;;;;;;;-144.99;100.00;67352.69;5053214;28;20407;-80
2024/02/07 12:44:31;;;;;;;;;;;;;;;-144.99;100.00;67352.69;5052180;28;20218;-80
2024/02/07 12:46:57;;;;;;;;;;;;;;;-144.99;100.00;67352.69;5051847;28;19912;-81
2024/02/07 12:49:22;;;;;;;;;;;;;;;-144.99;100.00;67352.69;5052565;28;20429;-80
2024/02/07 12:51:47;;;;;;;;;;;;;;;-144.99;100.00;67352.69;5053312;28;19912;-79
2024/02/07 12:54:13;;;;;;;;;;;;;;;-144.99;100.00;67352.69;5047540;28;19921;-80
2024/02/07 12:56:38;;;;;;;;;;;;;;;-144.99;100.00;67352.69;5045759;28;19952;-80
2024/02/07 12:59:03;;;;;;;;;;;;;;;-144.99;100.00;67352.69;5039342;28;19971;-80
2024/02/07 13:01:28;;;;;;;;;;;;;;;-144.99;100.00;67352.69;5050757;28;20083;-80
2024/02/07 13:03:54;;;;;;;;;;;;;;;-144.99;100.00;67352.69;5051319;28;19924;-80
2024/02/07 13:06:20;;;;;;;;;;;;;;;-144.99;100.00;67352.69;5050762;28;19966;-80
2024/02/07 13:08:46;;;;;;;;;;;;;;;-144.99;100.00;67352.69;5052981;28;20292;-79
2024/02/07 13:11:11;;;;;;;;;;;;;;;-144.99;100.00;67352.69;5051658;28;19948;-79
2024/02/07 13:13:37;;;;;;;;;;;;;;;-144.99;100.00;67352.69;5051607;28;19912;-80
2024/02/07 13:16:02;;;;;;;;;;;;;;;-144.99;100.00;67352.69;5051922;28;19916;-80
2024/02/07 13:18:27;;;;;;;;;;;;;;;-144.99;100.00;67352.69;5049653;28;19917;-80
2024/02/07 13:20:52;;;;;;;;;;;;;;;-144.99;100.00;67352.69;5051336;28;19920;-80
2024/02/07 13:23:23;;;;;;;;;;;;;;;-144.99;100.00;67352.69;5052560;28;19916;-80